Check out our new BloomSky Weather System.

Active alerts


No alerts


Thunder radar  blitzortung!


Rain radar more information rain snow radar


Visit our other weather sites:

Template documentation
and downloads

And another site



Weather Underground History page Text

Daily Summary for March 19, 2017 Units:  Metric    English   Both
« Previous Day
Next Day »
Daily Weekly Monthly Yearly Custom
  High: Low: Average:
Temperature: -17.8 °C 16.5 °C 22.8 °C
Dew Point: -17.8 °C 16.2 °C 18.8 °C
Humidity: Humidity % 48 % 80 %
Wind Speed: 0 km/h 0 km/h 4.2 km/h
Wind Gust: 0 km/h - -
Wind:- - South
Pressure: 0 hPa 1020.9 hPa -
Precipitation: 0 mm    
Historical Graphs
 
 
Tabular Data for March 19, 2017
Time Temperature Dew Point Pressure Wind Wind Speed Wind Gust Humidity Rainfall Rate (Hourly)
-17.8 °C -17.8 °C 0 hPa Calm     Humidity % 0 mm
00:01 21.4 °C 19.3 °C 1023.9 hPa South 1.6 km/h 9.7 km/h 88 % 0 mm
00:06 21.4 °C 19.3 °C 1023.9 hPa Calm   9.7 km/h 88 % 0 mm
00:11 21.3 °C 19.2 °C 1023.9 hPa Calm   4.8 km/h 88 % 0 mm
00:16 21.3 °C 19.2 °C 1023.9 hPa Calm   4.8 km/h 88 % 0 mm
00:21 21.2 °C 19.3 °C 1023.9 hPa SSW 3.2 km/h 4.8 km/h 89 % 0 mm
00:26 21.1 °C 19.2 °C 1023.9 hPa South 4.8 km/h 8 km/h 89 % 0 mm
00:31 21.1 °C 19.2 °C 1023.9 hPa SSE 1.6 km/h 8 km/h 89 % 0 mm
00:36 21.1 °C 19.4 °C 1023.9 hPa SW 3.2 km/h 8 km/h 90 % 0 mm
00:41 20.9 °C 19.2 °C 1023.9 hPa Calm   8 km/h 90 % 0 mm
00:46 20.9 °C 19.2 °C 1023.9 hPa SSE 3.2 km/h 4.8 km/h 90 % 0 mm
00:51 20.9 °C 19.4 °C 1023.9 hPa Calm   6.4 km/h 91 % 0 mm
00:56 20.8 °C 19.3 °C 1023.9 hPa SSE 3.2 km/h 6.4 km/h 91 % 0 mm
01:01 20.8 °C 19.3 °C 1023.6 hPa SSW 4.8 km/h 6.4 km/h 91 % 0 mm
01:06 20.8 °C 19.5 °C 1023.9 hPa SSW 1.6 km/h 8 km/h 92 % 0 mm
01:11 20.7 °C 19.4 °C 1023.6 hPa SSW 8 km/h 11.3 km/h 92 % 0 mm
01:16 20.7 °C 19.4 °C 1023.6 hPa SSW 3.2 km/h 11.3 km/h 92 % 0 mm
01:21 20.6 °C 19.3 °C 1023.6 hPa SSW 3.2 km/h 11.3 km/h 92 % 0 mm
01:26 20.5 °C 19.2 °C 1023.6 hPa Calm   8 km/h 92 % 0 mm
01:31 20.4 °C 19.2 °C 1023.6 hPa South 4.8 km/h 6.4 km/h 93 % 0 mm
01:36 20.4 °C 19.2 °C 1023.6 hPa SW 9.7 km/h 9.7 km/h 93 % 0 mm
01:41 20.4 °C 19.2 °C 1023.6 hPa SSE 3.2 km/h 11.3 km/h 93 % 0 mm
01:46 20.3 °C 19.1 °C 1023.6 hPa South 3.2 km/h 11.3 km/h 93 % 0 mm
01:51 20.3 °C 19.3 °C 1023.6 hPa SSW 3.2 km/h 11.3 km/h 94 % 0 mm
01:56 20.2 °C 19.2 °C 1023.6 hPa Calm   6.4 km/h 94 % 0 mm
02:01 20.2 °C 19.2 °C 1023.6 hPa SSE 1.6 km/h 8 km/h 94 % 0 mm
02:06 20.2 °C 19.2 °C 1023.6 hPa SSE 1.6 km/h 8 km/h 94 % 0 mm
02:11 20.1 °C 19.1 °C 1023.6 hPa South 8 km/h 8 km/h 94 % 0 mm
02:16 20.1 °C 19.1 °C 1023.6 hPa SW 1.6 km/h 9.7 km/h 94 % 0 mm
02:21 20.1 °C 19.3 °C 1023.6 hPa SSW 1.6 km/h 9.7 km/h 95 % 0 mm
02:26 20 °C 19.2 °C 1023.6 hPa SSE 3.2 km/h 9.7 km/h 95 % 0 mm
02:31 20 °C 19.2 °C 1023.6 hPa SSW 4.8 km/h 9.7 km/h 95 % 0 mm
02:36 19.9 °C 19.1 °C 1023.6 hPa South 3.2 km/h 9.7 km/h 95 % 0 mm
02:41 20 °C 19.2 °C 1023.2 hPa SSW 4.8 km/h 9.7 km/h 95 % 0 mm
02:46 19.9 °C 19.1 °C 1023.2 hPa Calm   11.3 km/h 95 % 0 mm
02:52 19.9 °C 19.1 °C 1023.2 hPa SE 3.2 km/h 11.3 km/h 95 % 0 mm
02:57 19.9 °C 19.1 °C 1023.2 hPa SSE 4.8 km/h 11.3 km/h 95 % 0 mm
03:02 19.8 °C 19 °C 1023.2 hPa SSW 1.6 km/h 9.7 km/h 95 % 0 mm
03:07 19.8 °C 19 °C 1023.2 hPa SSW 4.8 km/h 6.4 km/h 95 % 0 mm
03:12 19.7 °C 18.9 °C 1023.2 hPa Calm   6.4 km/h 95 % 0 mm
03:17 19.7 °C 19 °C 1023.2 hPa Calm   4.8 km/h 96 % 0 mm
03:22 19.7 °C 19 °C 1023.2 hPa WSW 6.4 km/h 6.4 km/h 96 % 0 mm
03:27 19.7 °C 19 °C 1023.2 hPa SSW 1.6 km/h 9.7 km/h 96 % 0 mm
03:32 19.6 °C 18.9 °C 1023.2 hPa South 1.6 km/h 9.7 km/h 96 % 0 mm
03:37 19.6 °C 18.9 °C 1023.2 hPa SSW 1.6 km/h 9.7 km/h 96 % 0 mm
03:42 19.6 °C 18.9 °C 1023.2 hPa SW 1.6 km/h 9.7 km/h 96 % 0 mm
03:47 19.5 °C 18.8 °C 1023.2 hPa SSW 3.2 km/h 9.7 km/h 96 % 0 mm
03:52 19.5 °C 18.8 °C 1023.2 hPa Calm   9.7 km/h 96 % 0 mm
03:57 19.5 °C 18.8 °C 1022.9 hPa SSW 3.2 km/h 9.7 km/h 96 % 0 mm
04:02 19.4 °C 18.7 °C 1022.9 hPa Calm   9.7 km/h 96 % 0 mm
04:07 19.4 °C 18.7 °C 1022.9 hPa SSW 1.6 km/h 8 km/h 96 % 0 mm
04:12 19.4 °C 18.7 °C 1022.9 hPa Calm   8 km/h 96 % 0 mm
04:17 19.3 °C 18.6 °C 1022.9 hPa SSE 3.2 km/h 6.4 km/h 96 % 0 mm
04:22 19.3 °C 18.8 °C 1022.9 hPa Calm   4.8 km/h 97 % 0 mm
04:27 19.2 °C 18.5 °C 1022.9 hPa Calm   4.8 km/h 96 % 0 mm
04:32 19.2 °C 18.7 °C 1022.9 hPa Calm   6.4 km/h 97 % 0 mm
04:37 19.1 °C 18.6 °C 1022.9 hPa SW 1.6 km/h 6.4 km/h 97 % 0 mm
04:42 19.1 °C 18.4 °C 1022.9 hPa Calm   6.4 km/h 96 % 0 mm
04:47 18.9 °C 18.4 °C 1022.9 hPa Calm   3.2 km/h 97 % 0 mm
04:52 18.9 °C 18.4 °C 1022.9 hPa Calm   3.2 km/h 97 % 0 mm
04:57 18.8 °C 18.3 °C 1022.9 hPa Calm   3.2 km/h 97 % 0 mm
05:02 18.8 °C 18.3 °C 1022.9 hPa Calm   3.2 km/h 97 % 0 mm
05:07 18.8 °C 18.3 °C 1022.9 hPa SSW 1.6 km/h 3.2 km/h 97 % 0 mm
05:12 18.8 °C 18.3 °C 1022.9 hPa Calm   1.6 km/h 97 % 0 mm
05:17 18.7 °C 18.2 °C 1022.9 hPa Calm   1.6 km/h 97 % 0 mm
05:22 18.7 °C 18.2 °C 1023.2 hPa Calm   1.6 km/h 97 % 0 mm
05:27 18.7 °C 18.2 °C 1023.2 hPa Calm   3.2 km/h 97 % 0 mm
05:32 18.8 °C 18.5 °C 1023.2 hPa Calm   3.2 km/h 98 % 0 mm
05:37 18.8 °C 18.5 °C 1023.2 hPa Calm   3.2 km/h 98 % 0 mm
05:42 18.7 °C 18.2 °C 1023.2 hPa Calm   1.6 km/h 97 % 0 mm
05:47 18.7 °C 18.4 °C 1023.2 hPa Calm     98 % 0 mm
05:52 18.6 °C 18.1 °C 1023.2 hPa Calm     97 % 0 mm
05:57 18.6 °C 18.1 °C 1023.2 hPa Calm     97 % 0 mm
06:02 18.4 °C 17.9 °C 1023.2 hPa Calm     97 % 0 mm
06:07 18.3 °C 17.8 °C 1023.2 hPa Calm     97 % 0 mm
06:12 18.2 °C 17.7 °C 1023.2 hPa Calm     97 % 0 mm
06:17 18.1 °C 17.6 °C 1023.6 hPa Calm     97 % 0 mm
06:22 18.1 °C 17.6 °C 1023.6 hPa Calm     97 % 0 mm
06:27 17.9 °C 17.4 °C 1023.6 hPa Calm     97 % 0 mm
06:32 17.8 °C 17.3 °C 1023.6 hPa Calm     97 % 0 mm
06:37 17.7 °C 17.2 °C 1023.6 hPa Calm     97 % 0 mm
06:42 17.7 °C 17.4 °C 1023.6 hPa Calm     98 % 0 mm
06:47 17.6 °C 17.1 °C 1023.6 hPa Calm     97 % 0 mm
06:52 17.4 °C 16.9 °C 1023.9 hPa Calm     97 % 0 mm
06:57 17.2 °C 16.7 °C 1023.9 hPa Calm     97 % 0 mm
06:58 17.2 °C 16.7 °C 1023.9 hPa Calm     97 % 0 mm
07:03 17.1 °C 16.6 °C 1023.9 hPa Calm     97 % 0 mm
07:08 17.2 °C 16.9 °C 1023.9 hPa Calm     98 % 0 mm
07:13 17.2 °C 16.9 °C 1023.9 hPa Calm     98 % 0 mm
07:18 17 °C 16.7 °C 1023.9 hPa Calm     98 % 0 mm
07:23 16.8 °C 16.5 °C 1023.9 hPa Calm     98 % 0 mm
07:28 16.8 °C 16.5 °C 1023.9 hPa Calm     98 % 0 mm
07:33 16.8 °C 16.5 °C 1023.9 hPa Calm     98 % 0 mm
07:38 16.7 °C 16.4 °C 1023.9 hPa Calm     98 % 0 mm
07:43 16.6 °C 16.3 °C 1023.9 hPa Calm     98 % 0 mm
07:48 16.5 °C 16.2 °C 1024.3 hPa Calm     98 % 0 mm
07:53 16.5 °C 16.2 °C 1024.3 hPa Calm     98 % 0 mm
07:58 16.6 °C 16.3 °C 1024.3 hPa Calm     98 % 0 mm
08:03 16.8 °C 16.5 °C 1024.3 hPa Calm     98 % 0 mm
08:08 17 °C 16.8 °C 1024.3 hPa Calm     99 % 0 mm
08:13 17.2 °C 17 °C 1024.3 hPa Calm     99 % 0 mm
08:18 17.4 °C 17.2 °C 1024.6 hPa Calm     99 % 0 mm
08:23 17.7 °C 17.5 °C 1024.6 hPa Calm     99 % 0 mm
08:28 18.1 °C 17.9 °C 1024.6 hPa Calm     99 % 0 mm
08:33 18.4 °C 18.2 °C 1024.6 hPa Calm     99 % 0 mm
08:38 18.6 °C 18.4 °C 1024.9 hPa Calm     99 % 0 mm
08:43 18.7 °C 18.5 °C 1024.9 hPa Calm   1.6 km/h 99 % 0 mm
08:48 18.9 °C 18.7 °C 1024.9 hPa SSW 3.2 km/h 3.2 km/h 99 % 0 mm
08:53 19 °C 18.8 °C 1024.9 hPa Calm   3.2 km/h 99 % 0 mm
08:58 19.2 °C 19 °C 1024.9 hPa Calm   3.2 km/h 99 % 0 mm
09:03 19.2 °C 18.9 °C 1024.9 hPa Calm   3.2 km/h 98 % 0 mm
09:08 19.3 °C 19.1 °C 1024.9 hPa Calm   3.2 km/h 99 % 0 mm
09:13 19.4 °C 19.2 °C 1024.9 hPa Calm   3.2 km/h 99 % 0 mm
09:18 19.7 °C 19.5 °C 1024.9 hPa SSW 3.2 km/h 4.8 km/h 99 % 0 mm
09:23 20 °C 19.8 °C 1024.9 hPa Calm   4.8 km/h 99 % 0 mm
09:28 20.3 °C 20.1 °C 1024.9 hPa Calm   4.8 km/h 99 % 0 mm
09:33 20.6 °C 20.4 °C 1024.9 hPa SW 1.6 km/h 4.8 km/h 99 % 0 mm
09:38 20.8 °C 20.5 °C 1024.9 hPa SSW 6.4 km/h 6.4 km/h 98 % 0 mm
09:43 21.1 °C 20.8 °C 1024.9 hPa SW 6.4 km/h 8 km/h 98 % 0 mm
09:48 21.2 °C 20.7 °C 1024.9 hPa SSE 1.6 km/h 8 km/h 97 % 0 mm
09:53 21.3 °C 20.6 °C 1024.9 hPa SSW 6.4 km/h 8 km/h 96 % 0 mm
09:54 21.3 °C 20.6 °C 1024.9 hPa South 6.4 km/h 8 km/h 96 % 0 mm
09:59 21.6 °C 20.9 °C 1024.9 hPa WNW 3.2 km/h 11.3 km/h 96 % 0 mm
10:04 21.9 °C 21.1 °C 1024.9 hPa SSW 14.5 km/h 14.5 km/h 95 % 0 mm
10:05 21.9 °C 20.9 °C 1024.9 hPa SSW 6.4 km/h 11.3 km/h 94 % 0 mm
10:10 22.2 °C 20.8 °C 1024.9 hPa WNW 4.8 km/h 14.5 km/h 92 % 0 mm
10:15 22.4 °C 20.7 °C 1024.9 hPa SSW 6.4 km/h 16.1 km/h 90 % 0 mm
10:20 22.7 °C 20.8 °C 1024.9 hPa SW 12.9 km/h 16.1 km/h 89 % 0 mm
10:25 22.9 °C 20.8 °C 1024.9 hPa SW 6.4 km/h 17.7 km/h 88 % 0 mm
10:30 23.2 °C 20.9 °C 1024.9 hPa SW 4.8 km/h 17.7 km/h 87 % 0 mm
10:35 23.5 °C 21 °C 1024.9 hPa South 3.2 km/h 16.1 km/h 86 % 0 mm
10:40 24.1 °C 21 °C 1024.9 hPa SW 3.2 km/h 14.5 km/h 83 % 0 mm
10:45 24.2 °C 20.9 °C 1025.3 hPa SE 9.7 km/h 14.5 km/h 82 % 0 mm
10:50 24.6 °C 21.3 °C 1025.3 hPa WNW 3.2 km/h 14.5 km/h 82 % 0 mm
10:55 25 °C 20.9 °C 1025.3 hPa WNW 3.2 km/h 12.9 km/h 78 % 0 mm
11:00 25.2 °C 20.9 °C 1025.3 hPa SW 1.6 km/h 12.9 km/h 77 % 0 mm
11:05 25.3 °C 20.5 °C 1025.3 hPa SSW 1.6 km/h 9.7 km/h 75 % 0 mm
11:10 25.4 °C 20.4 °C 1025.3 hPa West 3.2 km/h 9.7 km/h 74 % 0 mm
11:15 25.2 °C 20.5 °C 1025.3 hPa WSW 4.8 km/h 6.4 km/h 75 % 0 mm
11:20 25 °C 19.8 °C 1025.3 hPa Calm   9.7 km/h 73 % 0 mm
11:25 24.9 °C 19.9 °C 1025.3 hPa SSW 1.6 km/h 9.7 km/h 74 % 0 mm
11:30 24.8 °C 19.6 °C 1024.9 hPa South 6.4 km/h 9.7 km/h 73 % 0 mm
11:35 25.1 °C 20.1 °C 1024.9 hPa SW 1.6 km/h 9.7 km/h 74 % 0 mm
11:41 25.3 °C 19.7 °C 1024.9 hPa West 8 km/h 9.7 km/h 71 % 0 mm
11:46 25.4 °C 20.2 °C 1024.9 hPa WNW 3.2 km/h 9.7 km/h 73 % 0 mm
11:51 25.7 °C 19.8 °C 1024.9 hPa SE 3.2 km/h 9.7 km/h 70 % 0 mm
11:56 25.7 °C 19.8 °C 1024.9 hPa North 1.6 km/h 9.7 km/h 70 % 0 mm
12:01 25.8 °C 19 °C 1024.9 hPa WNW 3.2 km/h 11.3 km/h 66 % 0 mm
12:06 25.8 °C 19.2 °C 1024.9 hPa West 4.8 km/h 11.3 km/h 67 % 0 mm
12:11 26.1 °C 19.5 °C 1024.9 hPa SSW 4.8 km/h 11.3 km/h 67 % 0 mm
12:16 26.2 °C 19.1 °C 1024.9 hPa SW 3.2 km/h 14.5 km/h 65 % 0 mm
12:21 26.4 °C 20 °C 1024.9 hPa SSE 3.2 km/h 14.5 km/h 68 % 0 mm
12:26 26.9 °C 19.5 °C 1024.6 hPa SW 3.2 km/h 14.5 km/h 64 % 0 mm
12:31 26.9 °C 19.3 °C 1024.6 hPa SSW 6.4 km/h 12.9 km/h 63 % 0 mm
12:36 26.4 °C 18.8 °C 1024.6 hPa SSE 4.8 km/h 12.9 km/h 63 % 0 mm
12:41 26.1 °C 19.2 °C 1024.6 hPa WNW 3.2 km/h 12.9 km/h 66 % 0 mm
12:46 26.6 °C 19.5 °C 1024.6 hPa SSE 1.6 km/h 12.9 km/h 65 % 0 mm
12:51 27.3 °C 19.6 °C 1024.3 hPa West 3.2 km/h 12.9 km/h 63 % 0 mm
12:56 27.2 °C 19.3 °C 1024.3 hPa SW 1.6 km/h 11.3 km/h 62 % 0 mm
13:01 27.6 °C 19.1 °C 1024.3 hPa WSW 8 km/h 9.7 km/h 60 % 0 mm
13:06 27.6 °C 19.7 °C 1024.3 hPa West 3.2 km/h 9.7 km/h 62 % 0 mm
13:11 27.9 °C 18.9 °C 1024.3 hPa SE 6.4 km/h 9.7 km/h 58 % 0 mm
13:16 28.1 °C 20.6 °C 1024.3 hPa SSW 6.4 km/h 14.5 km/h 64 % 0 mm
13:21 27.9 °C 19.1 °C 1023.9 hPa South 1.6 km/h 14.5 km/h 59 % 0 mm
13:26 27.8 °C 19.1 °C 1023.9 hPa West 8 km/h 14.5 km/h 59 % 0 mm
13:31 27.9 °C 19.4 °C 1023.9 hPa Calm   14.5 km/h 60 % 0 mm
13:36 28.1 °C 18.8 °C 1023.9 hPa NNE 1.6 km/h 14.5 km/h 57 % 0 mm
13:41 27.8 °C 18.5 °C 1023.9 hPa SW 3.2 km/h 9.7 km/h 57 % 0 mm
13:46 27.9 °C 19.4 °C 1023.6 hPa SSW 1.6 km/h 6.4 km/h 60 % 0 mm
13:51 28.1 °C 19.1 °C 1023.6 hPa SW 3.2 km/h 11.3 km/h 58 % 0 mm
13:56 27.9 °C 18.3 °C 1023.6 hPa SW 1.6 km/h 11.3 km/h 56 % 0 mm
14:01 27.7 °C 18.7 °C 1023.6 hPa Calm   11.3 km/h 58 % 0 mm
14:06 27.8 °C 19.1 °C 1023.2 hPa SSW 6.4 km/h 8 km/h 59 % 0 mm
14:11 28 °C 19 °C 1023.2 hPa SSW 3.2 km/h 9.7 km/h 58 % 0 mm
14:16 28.1 °C 20.1 °C 1023.2 hPa SSE 1.6 km/h 9.7 km/h 62 % 0 mm
14:21 28.3 °C 19.5 °C 1023.2 hPa SW 4.8 km/h 9.7 km/h 59 % 0 mm
14:26 28.2 °C 18.9 °C 1023.2 hPa South 3.2 km/h 9.7 km/h 57 % 0 mm
14:31 28.1 °C 19.1 °C 1023.2 hPa South 12.9 km/h 12.9 km/h 58 % 0 mm
14:36 27.9 °C 18.9 °C 1022.9 hPa SW 4.8 km/h 12.9 km/h 58 % 0 mm
14:41 27.6 °C 18 °C 1022.9 hPa SE 11.3 km/h 12.9 km/h 56 % 0 mm
14:46 27.3 °C 18.6 °C 1022.9 hPa SW 9.7 km/h 14.5 km/h 59 % 0 mm
14:56 27.6 °C 18.3 °C 1022.6 hPa SSW 1.6 km/h 14.5 km/h 57 % 0 mm
15:01 27.8 °C 18.2 °C 1022.6 hPa SSW 4.8 km/h 14.5 km/h 56 % 0 mm
15:06 27.9 °C 17.1 °C 1022.6 hPa SW 11.3 km/h 20.9 km/h 52 % 0 mm
15:11 28 °C 17.5 °C 1022.6 hPa South 8 km/h 20.9 km/h 53 % 0 mm
15:16 28.1 °C 17.6 °C 1022.2 hPa ESE 12.9 km/h 20.9 km/h 53 % 0 mm
15:21 28.1 °C 17.6 °C 1022.2 hPa SW 1.6 km/h 20.9 km/h 53 % 0 mm
15:26 28 °C 17.8 °C 1022.2 hPa SW 8 km/h 20.9 km/h 54 % 0 mm
15:32 28.2 °C 18.3 °C 1022.2 hPa SW 6.4 km/h 16.1 km/h 55 % 0 mm
15:37 28.5 °C 17.7 °C 1022.2 hPa WSW 6.4 km/h 16.1 km/h 52 % 0 mm
15:42 28.8 °C 17.7 °C 1022.2 hPa South 6.4 km/h 16.1 km/h 51 % 0 mm
15:47 28.8 °C 17 °C 1022.2 hPa SE 11.3 km/h 19.3 km/h 49 % 0 mm
15:52 28.7 °C 17.2 °C 1022.2 hPa SSW 6.4 km/h 19.3 km/h 50 % 0 mm
15:57 28.3 °C 17.8 °C 1021.9 hPa SSE 6.4 km/h 19.3 km/h 53 % 0 mm
16:02 28.4 °C 18.2 °C 1021.9 hPa SSW 9.7 km/h 17.7 km/h 54 % 0 mm
16:07 28.7 °C 17.9 °C 1021.9 hPa SSW 8 km/h 17.7 km/h 52 % 0 mm
16:12 28.8 °C 18.3 °C 1021.9 hPa SSW 9.7 km/h 17.7 km/h 53 % 0 mm
16:17 28.8 °C 18.3 °C 1021.9 hPa SW 8 km/h 17.7 km/h 53 % 0 mm
16:22 28.9 °C 18.1 °C 1021.6 hPa ESE 3.2 km/h 17.7 km/h 52 % 0 mm
16:27 29.1 °C 17.9 °C 1021.6 hPa SW 3.2 km/h 16.1 km/h 51 % 0 mm
16:32 29.2 °C 18 °C 1021.6 hPa SSW 8 km/h 14.5 km/h 51 % 0 mm
16:37 29.1 °C 17.6 °C 1021.6 hPa SSW 8 km/h 16.1 km/h 50 % 0 mm
16:42 29.1 °C 17.6 °C 1021.6 hPa SW 9.7 km/h 16.1 km/h 50 % 0 mm
16:47 28.9 °C 17.4 °C 1021.6 hPa SSW 8 km/h 17.7 km/h 50 % 0 mm
16:52 29 °C 16.9 °C 1021.6 hPa SSW 4.8 km/h 17.7 km/h 48 % 0 mm
16:57 28.7 °C 16.9 °C 1021.6 hPa South 9.7 km/h 17.7 km/h 49 % 0 mm
17:02 28.4 °C 17 °C 1021.2 hPa South 8 km/h 14.5 km/h 50 % 0 mm
17:07 28.6 °C 17.8 °C 1021.2 hPa SSW 8 km/h 14.5 km/h 52 % 0 mm
17:12 28.6 °C 17.8 °C 1021.6 hPa SSW 1.6 km/h 16.1 km/h 52 % 0 mm
17:17 28.4 °C 17 °C 1021.6 hPa South 3.2 km/h 16.1 km/h 50 % 0 mm
17:22 28 °C 16.9 °C 1021.2 hPa SSW 4.8 km/h 16.1 km/h 51 % 0 mm
17:27 27.8 °C 17 °C 1021.2 hPa SSE 4.8 km/h 14.5 km/h 52 % 0 mm
17:32 27.8 °C 16.7 °C 1021.2 hPa SE 6.4 km/h 14.5 km/h 51 % 0 mm
17:37 28.2 °C 17.4 °C 1021.2 hPa South 1.6 km/h 14.5 km/h 52 % 0 mm
17:42 28.5 °C 17.4 °C 1021.2 hPa SSE 3.2 km/h 14.5 km/h 51 % 0 mm
17:47 28.4 °C 17.3 °C 1021.2 hPa South 6.4 km/h 14.5 km/h 51 % 0 mm
17:52 28.3 °C 17.2 °C 1021.2 hPa SSE 6.4 km/h 12.9 km/h 51 % 0 mm
17:57 28.2 °C 17.1 °C 1021.2 hPa South 11.3 km/h 12.9 km/h 51 % 0 mm
18:02 27.9 °C 17.4 °C 1020.9 hPa SE 8 km/h 11.3 km/h 53 % 0 mm
18:07 27.9 °C 17.4 °C 1020.9 hPa South 6.4 km/h 17.7 km/h 53 % 0 mm
18:12 27.8 °C 17.3 °C 1020.9 hPa SSW 8 km/h 17.7 km/h 53 % 0 mm
18:17 27.8 °C 17.3 °C 1020.9 hPa SW 8 km/h 17.7 km/h 53 % 0 mm
18:22 27.6 °C 17.5 °C 1020.9 hPa SSW 3.2 km/h 12.9 km/h 54 % 0 mm
18:27 27.4 °C 17.6 °C 1020.9 hPa South 4.8 km/h 12.9 km/h 55 % 0 mm
18:32 27.3 °C 17.8 °C 1020.9 hPa SSW 6.4 km/h 12.9 km/h 56 % 0 mm
18:36 27.6 °C 17.7 °C 1020.9 hPa South 1.6 km/h 9.7 km/h 55 % 0 mm
18:41 27.7 °C 19.8 °C 1020.9 hPa East 4.8 km/h 12.9 km/h 62 % 0 mm
18:46 27.6 °C 20.4 °C 1020.9 hPa ESE 4.8 km/h 12.9 km/h 65 % 0 mm
18:51 27.3 °C 20.4 °C 1020.9 hPa SE 3.2 km/h 14.5 km/h 66 % 0 mm
18:56 27.2 °C 20.3 °C 1020.9 hPa SW 12.9 km/h 14.5 km/h 66 % 0 mm
19:01 27.1 °C 20.4 °C 1020.9 hPa SSE 8 km/h 16.1 km/h 67 % 0 mm
19:06 26.8 °C 20.4 °C 1020.9 hPa SSW 8 km/h 17.7 km/h 68 % 0 mm
19:11 26.5 °C 20.3 °C 1020.9 hPa South 6.4 km/h 17.7 km/h 69 % 0 mm
19:17 26.2 °C 20.3 °C 1021.2 hPa South 12.9 km/h 19.3 km/h 70 % 0 mm
19:22 26 °C 20.3 °C 1020.9 hPa SSE 8 km/h 19.3 km/h 71 % 0 mm
19:27 25.9 °C 20.5 °C 1020.9 hPa SSE 4.8 km/h 19.3 km/h 72 % 0 mm
19:32 25.7 °C 20.3 °C 1021.2 hPa SW 8 km/h 19.3 km/h 72 % 0 mm
19:33 25.6 °C 20.4 °C 1021.2 hPa SE 11.3 km/h 19.3 km/h 73 % 0 mm
19:38 25.4 °C 20.2 °C 1021.2 hPa SSE 9.7 km/h 19.3 km/h 73 % 0 mm
19:43 25.3 °C 20.3 °C 1021.2 hPa ESE 11.3 km/h 19.3 km/h 74 % 0 mm
19:48 25.2 °C 20.2 °C 1021.2 hPa SE 8 km/h 16.1 km/h 74 % 0 mm
19:53 25.1 °C 20.4 °C 1021.2 hPa SSE 12.9 km/h 17.7 km/h 75 % 0 mm
19:58 24.9 °C 20.4 °C 1021.2 hPa South 8 km/h 19.3 km/h 76 % 0 mm
20:03 24.8 °C 20.5 °C 1021.2 hPa SSE 9.7 km/h 19.3 km/h 77 % 0 mm
20:08 24.7 °C 20.4 °C 1021.2 hPa SSE 4.8 km/h 19.3 km/h 77 % 0 mm
20:13 24.6 °C 20.3 °C 1021.2 hPa SE 9.7 km/h 17.7 km/h 77 % 0 mm
20:18 24.4 °C 20.3 °C 1021.2 hPa SE 9.7 km/h 17.7 km/h 78 % 0 mm
20:23 24.4 °C 20.3 °C 1021.2 hPa SE 3.2 km/h 14.5 km/h 78 % 0 mm
20:28 24.2 °C 20.3 °C 1021.6 hPa SSE 6.4 km/h 14.5 km/h 79 % 0 mm
20:33 24.1 °C 20.2 °C 1021.6 hPa ESE 8 km/h 12.9 km/h 79 % 0 mm
20:38 24 °C 20.3 °C 1021.6 hPa SE 9.7 km/h 17.7 km/h 80 % 0 mm
20:43 23.9 °C 20.2 °C 1021.6 hPa SE 11.3 km/h 17.7 km/h 80 % 0 mm
20:48 23.8 °C 20.1 °C 1021.6 hPa South 8 km/h 17.7 km/h 80 % 0 mm
20:53 23.7 °C 20.2 °C 1021.6 hPa SE 9.7 km/h 16.1 km/h 81 % 0 mm
20:58 23.6 °C 20.1 °C 1021.6 hPa SSW 6.4 km/h 12.9 km/h 81 % 0 mm
21:03 23.4 °C 20.1 °C 1021.6 hPa SE 8 km/h 17.7 km/h 82 % 0 mm
21:08 23.4 °C 20.1 °C 1021.6 hPa SE 9.7 km/h 17.7 km/h 82 % 0 mm
21:13 23.3 °C 20.1 °C 1021.6 hPa SE 9.7 km/h 17.7 km/h 82 % 0 mm
21:18 23.2 °C 20 °C 1021.6 hPa SSE 8 km/h 17.7 km/h 82 % 0 mm
21:23 23.1 °C 20.1 °C 1021.9 hPa SSW 8 km/h 17.7 km/h 83 % 0 mm
21:28 23 °C 20 °C 1021.9 hPa SSE 8 km/h 17.7 km/h 83 % 0 mm
21:33 22.9 °C 19.9 °C 1021.9 hPa SSE 6.4 km/h 19.3 km/h 83 % 0 mm
21:34 22.9 °C 19.9 °C 1021.9 hPa SSE 6.4 km/h 19.3 km/h 83 % 0 mm
21:39 22.9 °C 19.9 °C 1021.9 hPa SE 11.3 km/h 19.3 km/h 83 % 0 mm
21:44 22.8 °C 20 °C 1021.9 hPa South 11.3 km/h 19.3 km/h 84 % 0 mm
21:49 22.7 °C 19.9 °C 1021.9 hPa SSE 4.8 km/h 19.3 km/h 84 % 0 mm
21:54 22.6 °C 19.9 °C 1022.2 hPa SE 9.7 km/h 19.3 km/h 85 % 0 mm
21:59 22.5 °C 19.9 °C 1022.2 hPa South 6.4 km/h 19.3 km/h 85 % 0 mm
22:04 22.4 °C 19.8 °C 1022.2 hPa South 4.8 km/h 14.5 km/h 85 % 0 mm
22:09 22.3 °C 19.8 °C 1022.2 hPa SSE 3.2 km/h 14.5 km/h 86 % 0 mm
22:14 22.2 °C 19.7 °C 1022.2 hPa SSE 9.7 km/h 14.5 km/h 86 % 0 mm
22:19 22.1 °C 19.8 °C 1022.2 hPa SSE 4.8 km/h 14.5 km/h 87 % 0 mm
22:24 22.1 °C 19.8 °C 1022.2 hPa SSE 9.7 km/h 14.5 km/h 87 % 0 mm
22:29 21.9 °C 19.6 °C 1022.2 hPa South 6.4 km/h 19.3 km/h 87 % 0 mm
22:34 21.9 °C 19.6 °C 1022.6 hPa WSW 9.7 km/h 20.9 km/h 87 % 0 mm
22:39 21.8 °C 19.7 °C 1022.2 hPa ESE 8 km/h 20.9 km/h 88 % 0 mm
22:44 21.7 °C 19.6 °C 1022.2 hPa SSE 8 km/h 20.9 km/h 88 % 0 mm
22:49 21.6 °C 19.7 °C 1022.2 hPa South 6.4 km/h 16.1 km/h 89 % 0 mm
22:54 21.5 °C 19.6 °C 1022.2 hPa ESE 11.3 km/h 14.5 km/h 89 % 0 mm
22:59 21.4 °C 19.5 °C 1022.2 hPa SSE 3.2 km/h 12.9 km/h 89 % 0 mm
23:04 21.3 °C 19.6 °C 1022.2 hPa SSE 8 km/h 14.5 km/h 90 % 0 mm
23:09 21.3 °C 19.6 °C 1022.2 hPa ESE 6.4 km/h 14.5 km/h 90 % 0 mm
23:15 21.2 °C 19.5 °C 1022.2 hPa South 6.4 km/h 14.5 km/h 90 % 0 mm
23:20 21.2 °C 19.5 °C 1022.2 hPa South 4.8 km/h 11.3 km/h 90 % 0 mm
23:25 21.1 °C 19.6 °C 1022.2 hPa SE 3.2 km/h 14.5 km/h 91 % 0 mm
23:30 21.1 °C 19.6 °C 1022.2 hPa SE 3.2 km/h 14.5 km/h 91 % 0 mm
23:35 21.1 °C 19.6 °C 1022.2 hPa SW 4.8 km/h 14.5 km/h 91 % 0 mm
23:40 21 °C 19.5 °C 1022.2 hPa SE 3.2 km/h 12.9 km/h 91 % 0 mm
23:45 20.9 °C 19.4 °C 1022.2 hPa SSW 3.2 km/h 12.9 km/h 91 % 0 mm
23:50 20.9 °C 19.4 °C 1022.2 hPa SSE 3.2 km/h 11.3 km/h 91 % 0 mm
23:55 20.8 °C 19.5 °C 1022.2 hPa South 3.2 km/h 9.7 km/h 92 % 0 mm
Spring, Texas: Villages of Bridgestone
Compliments of Weather Underground - 2.75 mb

Script developed by  Jim McMurry - jmcmurry@mwt.net Adapted for the template by  Wim van der Kuil - Leuven-Template.eu

You find our weather info also at:

UK Metoffice

WeatherCloud

Weather Underground

Mid-South Weather Network

AWEKAS

Citizen Weather Observer Program (CWOP)

HAMweather, WeatherForYou, PWS Weather

Equipment we use:

Weather-station
Davis Vantage Vue

Weather-program
Meteohub

Weather-server
Debian 7.9 x86 (Guest)

Provider
DreamHost

Davis Vantage Vue

Meteohub

Debian 7.9 x86 (Guest)

DreamHost